Time;durP1;ratioP1;P1;durP2;ratioP2;P2;SDS_P1;SDS_P2;PMS_P1;PMS_P2;Temp;Humidity;BMP_temperature;BMP_pressure;BME280_temperature;BME280_humidity;BME280_pressure;Samples;Min_cycle;Max_cycle;Signal;HPM_P1;HPM_P2
2023/05/12 00:00:15;;;;;;;7.10;6.40;;;13.40;99.90;;;;;;4996886;28;20421;-82
2023/05/12 00:02:41;;;;;;;7.00;6.30;;;13.40;99.90;;;;;;4998935;28;20187;-81
2023/05/12 00:05:07;;;;;;;8.50;7.33;;;13.40;99.90;;;;;;5014463;28;20873;-82
2023/05/12 00:07:33;;;;;;;8.20;6.47;;;13.40;99.90;;;;;;4997842;28;20406;-83
2023/05/12 00:09:58;;;;;;;8.83;6.97;;;13.40;99.90;;;;;;4997745;28;20432;-82
2023/05/12 00:12:24;;;;;;;6.50;5.80;;;13.40;99.90;;;;;;4997744;28;20214;-85
2023/05/12 00:14:49;;;;;;;6.80;6.13;;;13.40;99.90;;;;;;4996606;28;20274;-82
2023/05/12 00:17:15;;;;;;;6.03;5.43;;;13.50;99.90;;;;;;4996443;28;20182;-82
2023/05/12 00:19:42;;;;;;;7.13;6.33;;;13.50;99.90;;;;;;4996493;28;20227;-82
2023/05/12 00:22:09;;;;;;;6.63;5.93;;;13.50;99.90;;;;;;4996324;28;20270;-83
2023/05/12 00:24:35;;;;;;;7.10;6.40;;;13.40;99.90;;;;;;4996407;28;20456;-84
2023/05/12 00:27:00;;;;;;;7.00;6.27;;;13.40;99.90;;;;;;4997309;28;20457;-83
2023/05/12 00:29:26;;;;;;;7.03;6.33;;;13.30;99.90;;;;;;5012664;28;20673;-82
2023/05/12 00:31:51;;;;;;;9.90;7.30;;;13.40;99.90;;;;;;4997113;28;20189;-82
2023/05/12 00:34:17;;;;;;;7.33;6.63;;;13.40;99.90;;;;;;4996239;28;20183;-83
2023/05/12 00:36:43;;;;;;;7.73;6.93;;;13.50;99.90;;;;;;4997317;28;20607;-82
2023/05/12 00:39:09;;;;;;;8.40;7.13;;;13.50;99.90;;;;;;4997644;28;20180;-82
2023/05/12 00:41:35;;;;;;;8.43;7.53;;;13.50;99.90;;;;;;4997142;28;20192;-84
2023/05/12 00:44:00;;;;;;;7.60;6.80;;;13.50;99.90;;;;;;4997013;28;20180;-82
2023/05/12 00:46:26;;;;;;;7.73;6.80;;;13.50;99.90;;;;;;4997045;28;20519;-84
2023/05/12 00:48:52;;;;;;;7.70;6.43;;;13.50;99.90;;;;;;4997340;28;20190;-84
2023/05/12 00:51:18;;;;;;;7.40;6.40;;;13.50;99.90;;;;;;4997037;28;20214;-83
2023/05/12 00:53:45;;;;;;;6.37;5.77;;;13.50;99.90;;;;;;4997020;28;20513;-82
2023/05/12 00:56:12;;;;;;;6.77;6.13;;;13.60;99.90;;;;;;4995708;28;20319;-83
2023/05/12 00:58:38;;;;;;;7.67;5.90;;;13.60;99.90;;;;;;4995604;28;20521;-84
2023/05/12 01:01:03;;;;;;;10.73;6.80;;;13.60;99.90;;;;;;4996684;28;20472;-82
2023/05/12 01:03:29;;;;;;;8.40;6.70;;;13.50;99.90;;;;;;4995806;28;20424;-84
2023/05/12 01:06:16;;;;;;;6.50;5.90;;;13.50;99.90;;;;;;4995392;28;20290;-82
2023/05/12 01:08:42;;;;;;;7.20;6.50;;;13.50;99.90;;;;;;4996963;28;20457;-84
2023/05/12 01:11:08;;;;;;;7.97;5.77;;;13.50;99.90;;;;;;4995567;28;20508;-82
2023/05/12 01:13:34;;;;;;;7.20;6.50;;;13.50;99.90;;;;;;4996570;28;20426;-83
2023/05/12 01:16:01;;;;;;;6.50;5.77;;;13.60;99.90;;;;;;4995334;28;20195;-84
2023/05/12 01:18:28;;;;;;;6.00;5.37;;;13.60;99.90;;;;;;4995363;28;20934;-81
2023/05/12 01:20:55;;;;;;;6.43;5.83;;;13.60;99.90;;;;;;4996396;28;20430;-82
2023/05/12 01:23:28;;;;;;;5.93;5.37;;;13.50;99.90;;;;;;4996590;28;20417;-82
2023/05/12 01:26:01;;;;;;;6.80;6.07;;;13.50;99.90;;;;;;5011336;28;20487;-82
2023/05/12 01:28:27;;;;;;;6.60;5.37;;;13.50;99.90;;;;;;5011543;28;20430;-83
2023/05/12 01:30:53;;;;;;;5.83;5.23;;;13.50;99.90;;;;;;4994892;28;20524;-83
2023/05/12 01:33:19;;;;;;;6.40;5.80;;;13.60;99.90;;;;;;4996285;28;20564;-84
2023/05/12 01:35:46;;;;;;;6.07;5.53;;;13.60;99.90;;;;;;4994904;28;20491;-83
2023/05/12 01:38:11;;;;;;;6.30;5.23;;;13.60;99.90;;;;;;5011193;28;20842;-84
2023/05/12 01:40:37;;;;;;;6.07;5.47;;;13.50;99.90;;;;;;4996173;28;20422;-82
2023/05/12 01:43:02;;;;;;;6.57;5.77;;;13.60;99.90;;;;;;4996091;28;20303;-82
2023/05/12 01:45:28;;;;;;;6.40;5.73;;;13.60;99.90;;;;;;4994611;28;20211;-82
2023/05/12 01:47:53;;;;;;;7.00;6.30;;;13.60;99.90;;;;;;5011612;28;20230;-82
2023/05/12 01:50:19;;;;;;;5.80;5.30;;;13.60;99.90;;;;;;4996698;28;20677;-82
2023/05/12 01:52:45;;;;;;;6.70;6.00;;;13.60;99.90;;;;;;4994681;28;20692;-83
2023/05/12 01:55:11;;;;;;;6.63;5.93;;;13.60;99.90;;;;;;4995918;28;20219;-83
2023/05/12 01:57:36;;;;;;;7.17;5.13;;;13.50;99.90;;;;;;4994421;28;20222;-82
2023/05/12 02:00:02;;;;;;;8.40;5.80;;;13.70;99.90;;;;;;4994432;28;20665;-82
2023/05/12 02:02:30;;;;;;;6.70;6.10;;;13.70;99.90;;;;;;4995729;28;20253;-84
2023/05/12 02:04:56;;;;;;;6.00;5.40;;;13.60;99.90;;;;;;4995573;28;20507;-82
2023/05/12 02:07:21;;;;;;;7.07;6.10;;;13.70;99.90;;;;;;4995608;28;20485;-82
2023/05/12 02:09:47;;;;;;;6.57;5.97;;;13.50;99.90;;;;;;4994441;28;20287;-82
2023/05/12 02:12:12;;;;;;;7.07;6.10;;;13.50;99.90;;;;;;4995640;28;20187;-83
2023/05/12 02:14:38;;;;;;;6.27;5.50;;;13.60;99.90;;;;;;4994087;28;20285;-82
2023/05/12 02:17:04;;;;;;;6.00;5.33;;;13.50;99.90;;;;;;4995443;28;20246;-82
2023/05/12 02:19:29;;;;;;;6.00;5.40;;;13.50;99.90;;;;;;4995742;28;20179;-82
2023/05/12 02:21:55;;;;;;;5.33;4.87;;;13.60;99.90;;;;;;4995026;28;20274;-81
2023/05/12 02:24:20;;;;;;;6.40;5.80;;;13.60;99.90;;;;;;4995695;28;20180;-82
2023/05/12 02:26:46;;;;;;;6.80;6.20;;;13.60;99.90;;;;;;4995046;28;20751;-84
2023/05/12 02:29:12;;;;;;;6.90;6.20;;;13.60;99.90;;;;;;5010156;28;20216;-84
2023/05/12 02:31:37;;;;;;;7.07;6.33;;;13.50;99.90;;;;;;4995156;28;20196;-82
2023/05/12 02:34:03;;;;;;;7.40;6.50;;;13.50;99.90;;;;;;4995618;28;20186;-81
2023/05/12 02:36:29;;;;;;;7.00;6.40;;;13.50;99.90;;;;;;4995447;28;20591;-84
2023/05/12 02:38:54;;;;;;;8.33;6.13;;;13.50;99.90;;;;;;4994878;28;20184;-82
2023/05/12 02:41:21;;;;;;;6.10;5.60;;;13.50;99.90;;;;;;4994919;28;20211;-83
2023/05/12 02:43:46;;;;;;;6.60;6.00;;;13.60;99.90;;;;;;4995230;28;20526;-82
2023/05/12 02:46:12;;;;;;;5.77;5.20;;;13.50;99.90;;;;;;4993545;28;20476;-84
2023/05/12 02:48:38;;;;;;;6.93;6.10;;;13.60;99.90;;;;;;4995066;28;20192;-82
2023/05/12 02:51:03;;;;;;;7.23;6.10;;;13.60;99.90;;;;;;4994662;28;20198;-83
2023/05/12 02:53:29;;;;;;;5.43;4.93;;;13.60;99.90;;;;;;4994779;28;20606;-84
2023/05/12 02:55:55;;;;;;;5.83;5.23;;;13.60;99.90;;;;;;5009804;28;20787;-82
2023/05/12 02:58:21;;;;;;;5.73;5.23;;;13.60;99.90;;;;;;4994921;28;20188;-82
2023/05/12 03:00:48;;;;;;;6.37;5.47;;;13.60;99.90;;;;;;4993404;28;20295;-85
2023/05/12 03:03:14;;;;;;;5.80;5.13;;;13.60;99.90;;;;;;4994749;28;20429;-83
2023/05/12 03:05:40;;;;;;;6.00;5.40;;;13.60;99.90;;;;;;4994463;28;20888;-82
2023/05/12 03:08:05;;;;;;;6.10;5.40;;;13.60;99.90;;;;;;5009622;28;20188;-82
2023/05/12 03:10:31;;;;;;;6.03;5.30;;;13.70;99.90;;;;;;4994494;28;20433;-82
2023/05/12 03:12:57;;;;;;;6.30;5.70;;;13.70;99.90;;;;;;4994474;28;20271;-85
2023/05/12 03:15:23;;;;;;;6.70;6.10;;;13.70;99.90;;;;;;4994400;28;20196;-84
2023/05/12 03:17:48;;;;;;;7.53;6.30;;;13.70;99.90;;;;;;4994432;28;20187;-81
2023/05/12 03:20:14;;;;;;;6.27;5.70;;;13.80;99.90;;;;;;4994466;28;20484;-83
2023/05/12 03:22:40;;;;;;;6.60;6.00;;;13.70;99.90;;;;;;4994298;28;20654;-83
2023/05/12 03:25:08;;;;;;;6.23;5.70;;;13.70;99.90;;;;;;4994337;28;20191;-84
2023/05/12 03:27:33;;;;;;;6.80;6.13;;;13.70;99.90;;;;;;5009267;28;20844;-84
2023/05/12 03:30:00;;;;;;;7.13;5.97;;;13.70;99.90;;;;;;4994216;28;20487;-83
2023/05/12 03:32:27;;;;;;;6.90;6.20;;;13.60;99.90;;;;;;4994339;28;20630;-82
2023/05/12 03:34:52;;;;;;;6.07;5.57;;;13.70;99.90;;;;;;4997759;28;20805;-82
2023/05/12 03:37:18;;;;;;;6.67;5.80;;;13.70;99.90;;;;;;5000839;28;20410;-84
2023/05/12 03:39:44;;;;;;;6.40;5.80;;;13.80;99.90;;;;;;4999628;28;20218;-82
2023/05/12 03:42:09;;;;;;;6.87;5.60;;;13.80;99.90;;;;;;5000790;28;20199;-84
2023/05/12 03:44:35;;;;;;;6.90;6.10;;;13.90;99.90;;;;;;5000562;28;20183;-83
2023/05/12 03:47:01;;;;;;;7.83;6.90;;;13.90;99.90;;;;;;5000562;28;20247;-81
2023/05/12 03:49:26;;;;;;;7.27;6.20;;;13.90;99.90;;;;;;4999304;28;20183;-82
2023/05/12 03:51:52;;;;;;;10.33;7.50;;;13.90;99.90;;;;;;5015708;28;20195;-84
2023/05/12 03:54:18;;;;;;;10.47;6.80;;;13.90;99.90;;;;;;5001021;28;20187;-81
2023/05/12 03:56:43;;;;;;;11.33;7.20;;;14.00;99.90;;;;;;5001013;28;20195;-84
2023/05/12 03:59:10;;;;;;;18.10;12.30;;;14.00;99.90;;;;;;5001201;28;20652;-87
2023/05/12 04:01:36;;;;;;;7.80;6.43;;;14.00;99.90;;;;;;5007994;28;20302;-80
2023/05/12 04:04:02;;;;;;;6.90;6.20;;;14.00;99.90;;;;;;5000503;28;20456;-81
2023/05/12 04:06:28;;;;;;;6.70;6.00;;;14.00;99.90;;;;;;5000442;28;20221;-80
2023/05/12 04:08:53;;;;;;;12.00;7.37;;;13.90;99.90;;;;;;4999277;28;20472;-80
2023/05/12 04:11:19;;;;;;;7.67;6.83;;;13.80;99.90;;;;;;4999054;28;20214;-80
2023/05/12 04:13:45;;;;;;;12.83;7.37;;;13.80;99.90;;;;;;4999085;28;20180;-81
2023/05/12 04:16:10;;;;;;;7.90;7.10;;;13.90;99.90;;;;;;4997846;28;20238;-85
2023/05/12 04:18:36;;;;;;;6.97;5.73;;;13.90;99.90;;;;;;4999508;28;20187;-80
2023/05/12 04:21:02;;;;;;;8.60;7.13;;;13.90;99.90;;;;;;4998936;28;20537;-86
2023/05/12 04:23:28;;;;;;;9.90;5.80;;;14.00;99.90;;;;;;5000340;28;20262;-80
2023/05/12 04:25:54;;;;;;;6.40;5.80;;;14.00;99.90;;;;;;4998930;28;21128;-81
2023/05/12 04:28:19;;;;;;;7.10;6.40;;;14.00;99.90;;;;;;4999073;28;20275;-85
2023/05/12 04:30:45;;;;;;;7.63;6.37;;;14.00;99.90;;;;;;5000234;28;20688;-86
2023/05/12 04:33:11;;;;;;;9.10;6.13;;;14.10;99.90;;;;;;5000599;28;20207;-81
2023/05/12 04:35:36;;;;;;;7.60;6.17;;;14.10;99.90;;;;;;5000960;28;20235;-85
2023/05/12 04:38:02;;;;;;;7.00;6.30;;;14.10;99.90;;;;;;5000050;28;20255;-81
2023/05/12 04:40:28;;;;;;;6.23;5.63;;;14.00;99.90;;;;;;4999966;28;20207;-81
2023/05/12 04:42:55;;;;;;;6.50;5.90;;;14.00;99.90;;;;;;4988243;28;20202;-86
2023/05/12 04:45:21;;;;;;;6.23;5.43;;;14.00;99.90;;;;;;4976958;28;20446;-80
2023/05/12 04:47:47;;;;;;;8.00;5.50;;;14.00;99.90;;;;;;4977197;28;20760;-81
2023/05/12 04:50:13;;;;;;;6.93;6.23;;;13.90;99.90;;;;;;4977082;28;20604;-86
2023/05/12 04:52:38;;;;;;;6.23;5.63;;;13.90;99.90;;;;;;4977298;28;20186;-80
2023/05/12 04:55:06;;;;;;;5.90;5.33;;;13.90;99.90;;;;;;4983915;28;20511;-85
2023/05/12 04:57:32;;;;;;;7.40;5.90;;;14.00;99.90;;;;;;4994959;28;20179;-80
2023/05/12 04:59:58;;;;;;;6.30;5.70;;;14.00;99.90;;;;;;4993883;28;20971;-79
2023/05/12 05:02:24;;;;;;;6.30;5.70;;;14.10;99.90;;;;;;5009662;28;20176;-79
2023/05/12 05:04:51;;;;;;;7.47;6.67;;;14.20;99.90;;;;;;4994748;28;20822;-86
2023/05/12 05:07:17;;;;;;;6.83;6.17;;;14.20;99.90;;;;;;4991898;28;20462;-86
2023/05/12 05:09:43;;;;;;;8.10;5.63;;;14.20;99.90;;;;;;4993242;28;20992;-85
2023/05/12 05:12:08;;;;;;;6.90;5.67;;;14.20;99.90;;;;;;4993673;28;20512;-81
2023/05/12 05:14:34;;;;;;;6.40;5.80;;;14.30;99.90;;;;;;4992155;28;20195;-81
2023/05/12 05:17:00;;;;;;;6.87;6.00;;;14.20;99.90;;;;;;4990920;28;20192;-85
2023/05/12 05:19:26;;;;;;;5.83;5.30;;;14.30;99.90;;;;;;4983517;28;20183;-86
2023/05/12 05:21:52;;;;;;;8.17;6.10;;;14.30;99.90;;;;;;4993996;28;20640;-83
2023/05/12 05:24:18;;;;;;;7.07;6.37;;;14.20;99.90;;;;;;4980578;28;20434;-86
2023/05/12 05:26:44;;;;;;;8.20;7.00;;;14.20;99.90;;;;;;4976321;28;20477;-85
2023/05/12 05:29:10;;;;;;;10.03;7.80;;;14.20;99.90;;;;;;4976351;28;20183;-81
2023/05/12 05:31:37;;;;;;;9.70;7.83;;;14.20;99.90;;;;;;4974574;28;20517;-86
2023/05/12 05:34:03;;;;;;;12.40;8.37;;;14.30;99.90;;;;;;4974273;28;20192;-86
2023/05/12 05:36:29;;;;;;;11.87;8.13;;;14.30;99.90;;;;;;4974764;28;20443;-81
2023/05/12 05:38:55;;;;;;;15.80;8.43;;;14.20;99.90;;;;;;4974372;28;20649;-80
2023/05/12 05:41:21;;;;;;;10.33;8.07;;;14.20;99.90;;;;;;4972311;28;20450;-85
2023/05/12 05:43:47;;;;;;;9.93;8.40;;;14.30;99.90;;;;;;4973335;28;20172;-86
2023/05/12 05:46:13;;;;;;;12.53;8.70;;;14.20;99.90;;;;;;4971587;28;20477;-85
2023/05/12 05:48:38;;;;;;;13.13;8.17;;;14.20;99.90;;;;;;4970286;28;20185;-81
2023/05/12 05:51:05;;;;;;;11.60;9.00;;;14.30;99.90;;;;;;4978705;28;20266;-81
2023/05/12 05:53:31;;;;;;;12.27;8.90;;;14.30;99.90;;;;;;4976347;28;20206;-86
2023/05/12 05:55:56;;;;;;;14.03;9.30;;;14.30;99.90;;;;;;4991116;28;20821;-87
2023/05/12 05:58:22;;;;;;;12.43;9.17;;;14.30;99.90;;;;;;4972895;28;20440;-81
2023/05/12 06:00:48;;;;;;;14.50;10.37;;;14.30;99.90;;;;;;4973759;28;20204;-81
2023/05/12 06:03:14;;;;;;;13.77;10.10;;;14.20;99.90;;;;;;4971745;28;20231;-85
2023/05/12 06:05:42;;;;;;;14.83;10.10;;;14.20;99.90;;;;;;4971186;28;20478;-81
2023/05/12 06:08:09;;;;;;;19.77;14.20;;;14.20;99.90;;;;;;4988511;28;20943;-80
2023/05/12 06:10:35;;;;;;;20.43;12.30;;;14.20;99.90;;;;;;4990311;28;20429;-80
2023/05/12 06:13:01;;;;;;;11.43;9.57;;;14.20;99.90;;;;;;4993088;28;20425;-85
2023/05/12 06:15:27;;;;;;;11.17;9.50;;;14.10;99.90;;;;;;4992876;28;20480;-80
2023/05/12 06:17:52;;;;;;;17.03;15.30;;;14.10;99.90;;;;;;4989297;28;20172;-80
2023/05/12 06:20:18;;;;;;;8.97;8.10;;;14.10;99.90;;;;;;4990196;28;20208;-81
2023/05/12 06:22:45;;;;;;;7.17;6.47;;;14.10;99.90;;;;;;4982087;28;20285;-80
2023/05/12 06:25:11;;;;;;;6.40;5.90;;;14.20;99.90;;;;;;4989228;28;20942;-85
2023/05/12 06:27:36;;;;;;;7.63;6.77;;;14.20;99.90;;;;;;4986577;28;20529;-81
2023/05/12 06:30:03;;;;;;;7.00;6.40;;;14.10;99.90;;;;;;4974093;28;20438;-81
2023/05/12 06:32:29;;;;;;;8.10;6.73;;;14.10;99.90;;;;;;4975155;28;20230;-84
2023/05/12 06:34:55;;;;;;;7.23;6.57;;;14.10;99.90;;;;;;4973807;28;21057;-85
2023/05/12 06:37:20;;;;;;;7.93;6.43;;;14.20;99.90;;;;;;4972426;28;20406;-82
2023/05/12 06:39:46;;;;;;;9.07;6.40;;;14.20;99.90;;;;;;4986819;28;20188;-86
2023/05/12 06:42:12;;;;;;;6.30;5.80;;;14.20;99.90;;;;;;4978398;28;20172;-85
2023/05/12 06:44:38;;;;;;;6.50;5.90;;;14.30;99.90;;;;;;4992934;28;20437;-86
2023/05/12 06:47:04;;;;;;;7.97;6.70;;;14.30;99.90;;;;;;4989417;28;20469;-81
2023/05/12 06:49:30;;;;;;;9.30;6.53;;;14.20;99.90;;;;;;4989711;28;20188;-81
2023/05/12 06:51:55;;;;;;;6.40;5.60;;;14.30;99.90;;;;;;4989646;28;20428;-82
2023/05/12 06:54:21;;;;;;;7.10;6.40;;;14.30;99.90;;;;;;4989400;28;20426;-82
2023/05/12 06:56:47;;;;;;;6.60;6.00;;;14.30;99.90;;;;;;4986903;28;20342;-87
2023/05/12 06:59:13;;;;;;;7.17;6.47;;;14.30;99.90;;;;;;4987972;28;20176;-85
2023/05/12 07:01:39;;;;;;;12.00;5.90;;;14.30;99.90;;;;;;4990096;28;20200;-89
2023/05/12 07:04:06;;;;;;;7.23;6.53;;;14.40;99.90;;;;;;4986173;28;20195;-82
2023/05/12 07:06:33;;;;;;;8.00;5.90;;;14.30;99.90;;;;;;4986319;28;21005;-82
2023/05/12 07:08:59;;;;;;;6.70;6.10;;;14.30;99.90;;;;;;4989709;28;20421;-82
2023/05/12 07:11:24;;;;;;;7.77;5.67;;;14.30;99.90;;;;;;4990602;28;20524;-82
2023/05/12 07:13:51;;;;;;;12.30;9.33;;;14.40;99.90;;;;;;5006435;28;20471;-85
2023/05/12 07:16:17;;;;;;;8.77;7.40;;;14.40;99.90;;;;;;4992224;28;20274;-82
2023/05/12 07:18:43;;;;;;;7.13;6.43;;;14.40;99.90;;;;;;4987566;28;20503;-82
2023/05/12 07:21:09;;;;;;;6.40;5.80;;;14.50;99.90;;;;;;4991984;28;20425;-82
2023/05/12 07:23:36;;;;;;;6.27;5.67;;;14.50;99.90;;;;;;4989042;28;20179;-82
2023/05/12 07:26:03;;;;;;;6.77;5.90;;;14.50;99.90;;;;;;4990556;28;20812;-85
2023/05/12 07:28:36;;;;;;;7.23;5.93;;;14.60;99.90;;;;;;4988434;28;20441;-82
2023/05/12 07:31:08;;;;;;;7.10;6.50;;;14.50;99.90;;;;;;4988868;28;20793;-85
2023/05/12 07:33:34;;;;;;;6.83;6.23;;;14.60;99.90;;;;;;4987545;28;20433;-85
2023/05/12 07:36:01;;;;;;;6.30;5.80;;;14.60;99.90;;;;;;4988424;28;20481;-82
2023/05/12 07:38:27;;;;;;;6.57;5.97;;;14.70;99.90;;;;;;4990196;28;20421;-82
2023/05/12 07:40:53;;;;;;;6.13;5.63;;;14.60;99.90;;;;;;4988665;28;20516;-86
2023/05/12 07:43:19;;;;;;;6.03;5.53;;;14.70;99.90;;;;;;4989757;28;21013;-85
2023/05/12 07:45:45;;;;;;;8.83;6.37;;;14.70;99.90;;;;;;4990735;28;20270;-82
2023/05/12 07:48:11;;;;;;;6.13;5.60;;;14.80;99.90;;;;;;4989572;28;20441;-82
2023/05/12 07:50:37;;;;;;;6.73;6.03;;;14.80;99.90;;;;;;4989532;28;20997;-86
2023/05/12 07:53:04;;;;;;;5.93;5.33;;;14.80;99.90;;;;;;4988337;28;20528;-86
2023/05/12 07:55:32;;;;;;;8.13;6.37;;;14.80;99.90;;;;;;4989558;28;20456;-81
2023/05/12 07:57:58;;;;;;;9.20;5.93;;;14.80;99.90;;;;;;4988287;28;20528;-85
2023/05/12 08:00:24;;;;;;;7.17;6.50;;;14.90;99.90;;;;;;4989196;28;20828;-86
2023/05/12 08:02:49;;;;;;;6.07;5.47;;;14.90;99.90;;;;;;4987906;28;20406;-82
2023/05/12 08:05:15;;;;;;;6.23;5.73;;;14.90;99.90;;;;;;4987255;28;20286;-82
2023/05/12 08:07:42;;;;;;;6.20;5.60;;;14.80;99.90;;;;;;4986794;28;20321;-86
2023/05/12 08:10:09;;;;;;;6.60;6.10;;;14.70;99.90;;;;;;4989575;28;20433;-85
2023/05/12 08:12:34;;;;;;;6.17;5.50;;;14.80;99.90;;;;;;4986925;28;20922;-86
2023/05/12 08:15:00;;;;;;;5.77;5.20;;;14.80;99.90;;;;;;4988896;28;20495;-85
2023/05/12 08:17:26;;;;;;;5.73;5.13;;;14.80;99.90;;;;;;4989804;28;20546;-84
2023/05/12 08:19:51;;;;;;;8.17;5.83;;;14.80;99.90;;;;;;4991595;28;20203;-86
2023/05/12 08:22:17;;;;;;;6.30;5.70;;;14.70;99.90;;;;;;4997549;28;20199;-86
2023/05/12 08:24:42;;;;;;;7.13;5.83;;;14.70;99.90;;;;;;4998086;28;20187;-86
2023/05/12 08:27:08;;;;;;;6.10;5.50;;;14.70;99.90;;;;;;4995880;28;20675;-84
2023/05/12 08:29:34;;;;;;;7.60;5.27;;;14.70;99.90;;;;;;4993799;28;20184;-82
2023/05/12 08:32:00;;;;;;;5.63;5.00;;;14.60;99.90;;;;;;4993878;28;20222;-85
2023/05/12 08:34:25;;;;;;;5.90;5.40;;;14.70;99.90;;;;;;4989554;28;20195;-86
2023/05/12 08:36:52;;;;;;;6.80;5.67;;;14.70;99.90;;;;;;4989941;28;20438;-86
2023/05/12 08:39:18;;;;;;;6.30;5.80;;;14.70;99.90;;;;;;4993907;28;20557;-86
2023/05/12 08:42:09;;;;;;;5.60;5.07;;;14.80;99.90;;;;;;4994730;28;20445;-82
2023/05/12 08:44:36;;;;;;;5.57;5.07;;;14.80;99.90;;;;;;4977032;28;20425;-82
2023/05/12 08:47:04;;;;;;;7.30;6.60;;;14.70;99.90;;;;;;4995815;28;21001;-82
2023/05/12 08:49:33;;;;;;;6.00;5.50;;;14.80;99.90;;;;;;4986952;28;20454;-83
2023/05/12 08:52:01;;;;;;;7.90;6.40;;;14.80;99.90;;;;;;4975790;28;20454;-85
2023/05/12 08:54:28;;;;;;;7.73;6.00;;;14.80;99.90;;;;;;4976625;28;20525;-82
2023/05/12 08:56:55;;;;;;;7.40;6.63;;;14.70;99.90;;;;;;4976657;28;20529;-86
2023/05/12 08:59:22;;;;;;;9.77;7.43;;;14.80;99.90;;;;;;4978305;28;20438;-82
2023/05/12 09:01:49;;;;;;;8.33;6.90;;;14.80;99.90;;;;;;5009717;28;20844;-86
2023/05/12 09:04:16;;;;;;;6.33;5.70;;;14.90;99.90;;;;;;5007264;28;20472;-82
2023/05/12 09:06:45;;;;;;;6.83;6.00;;;14.80;99.90;;;;;;5013922;28;20468;-86
2023/05/12 09:09:14;;;;;;;6.30;5.77;;;14.80;99.90;;;;;;4982229;28;20427;-85
2023/05/12 09:11:41;;;;;;;6.33;5.73;;;14.80;99.90;;;;;;4972192;28;20430;-82
2023/05/12 09:14:28;;;;;;;6.70;5.87;;;14.80;99.90;;;;;;4973867;28;20445;-87
2023/05/12 09:17:00;;;;;;;6.40;5.80;;;14.70;99.90;;;;;;4974534;28;20450;-82
2023/05/12 09:19:26;;;;;;;5.87;5.37;;;14.70;99.90;;;;;;4991447;28;20441;-86
2023/05/12 09:21:52;;;;;;;6.57;5.37;;;14.70;99.90;;;;;;4995187;28;20442;-81
2023/05/12 09:24:18;;;;;;;6.30;5.80;;;14.60;99.90;;;;;;4993325;28;20431;-86
2023/05/12 09:26:52;;;;;;;8.60;6.23;;;14.60;99.90;;;;;;4993228;28;20523;-87
2023/05/12 09:29:19;;;;;;;6.87;6.27;;;14.60;99.90;;;;;;4990092;28;20315;-82
2023/05/12 09:31:56;;;;;;;7.47;6.00;;;14.60;99.90;;;;;;4990450;28;20445;-81
2023/05/12 09:34:29;;;;;;;7.53;6.40;;;14.60;99.90;;;;;;4992450;28;20417;-82
2023/05/12 09:37:00;;;;;;;7.17;6.27;;;14.50;99.90;;;;;;4992460;28;20429;-82
2023/05/12 09:39:27;;;;;;;6.70;6.10;;;14.40;99.90;;;;;;4994033;28;20938;-84
2023/05/12 09:41:53;;;;;;;5.80;5.20;;;14.30;99.90;;;;;;4993469;28;21065;-87
2023/05/12 09:44:20;;;;;;;6.47;5.77;;;14.30;99.90;;;;;;4996474;28;20422;-82
2023/05/12 09:46:46;;;;;;;6.93;6.23;;;14.20;99.90;;;;;;4994506;28;20481;-82
2023/05/12 09:49:12;;;;;;;8.70;6.53;;;14.10;99.90;;;;;;4996017;28;20413;-82
2023/05/12 09:51:40;;;;;;;6.90;6.30;;;14.10;99.90;;;;;;4995756;28;20508;-84
2023/05/12 09:54:07;;;;;;;6.73;5.97;;;14.00;99.90;;;;;;4994608;28;20452;-82
2023/05/12 09:56:36;;;;;;;7.47;6.77;;;14.00;99.90;;;;;;4994629;28;20584;-86
2023/05/12 09:59:04;;;;;;;7.20;6.50;;;14.00;99.90;;;;;;4997250;28;21025;-82
2023/05/12 10:01:29;;;;;;;7.87;7.07;;;14.00;99.90;;;;;;4994358;28;20434;-86
2023/05/12 10:03:57;;;;;;;9.67;7.80;;;14.00;99.90;;;;;;4993468;28;21022;-82
2023/05/12 10:06:29;;;;;;;11.43;8.50;;;14.10;99.90;;;;;;4993151;28;20659;-87
2023/05/12 10:09:22;;;;;;;8.87;8.03;;;14.10;99.90;;;;;;4994836;28;20441;-87
2023/05/12 10:11:49;;;;;;;8.87;7.50;;;14.10;99.90;;;;;;4994756;28;20473;-82
2023/05/12 10:14:16;;;;;;;10.70;7.80;;;14.00;99.90;;;;;;5009733;28;20483;-82
2023/05/12 10:16:45;;;;;;;8.63;7.83;;;14.00;99.90;;;;;;4993459;28;20441;-86
2023/05/12 10:19:12;;;;;;;8.57;7.70;;;14.00;99.90;;;;;;4994347;28;20930;-82
2023/05/12 10:21:39;;;;;;;9.10;8.20;;;14.10;99.90;;;;;;4984200;28;20462;-86
2023/05/12 10:24:05;;;;;;;10.83;7.70;;;14.20;99.90;;;;;;4983580;28;20446;-85
2023/05/12 10:26:33;;;;;;;9.27;8.37;;;14.20;99.90;;;;;;4975814;28;20851;-85
2023/05/12 10:28:59;;;;;;;11.60;8.57;;;14.20;99.90;;;;;;4975661;28;20445;-86
2023/05/12 10:31:26;;;;;;;12.43;8.80;;;14.20;99.90;;;;;;5008033;28;20536;-86
2023/05/12 10:34:00;;;;;;;10.33;9.03;;;14.20;99.90;;;;;;5004014;28;20804;-82
2023/05/12 10:36:26;;;;;;;9.33;8.43;;;14.20;99.90;;;;;;4985263;28;20465;-82
2023/05/12 10:38:52;;;;;;;9.57;8.57;;;14.30;99.90;;;;;;4977476;28;20808;-82
2023/05/12 10:41:36;;;;;;;13.23;8.20;;;14.30;99.90;;;;;;4977037;28;20207;-85
2023/05/12 10:44:01;;;;;;;13.27;9.87;;;14.40;99.90;;;;;;4975549;28;20442;-85
2023/05/12 10:46:28;;;;;;;10.43;8.03;;;14.30;99.90;;;;;;4990834;28;20813;-85
2023/05/12 10:48:58;;;;;;;7.97;7.27;;;14.30;99.90;;;;;;4978990;28;20189;-86
2023/05/12 10:51:32;;;;;;;8.73;7.90;;;14.30;99.90;;;;;;4979210;28;20457;-82
2023/05/12 10:54:03;;;;;;;7.87;7.00;;;14.30;99.90;;;;;;4983948;28;20491;-82
2023/05/12 10:56:39;;;;;;;8.93;7.70;;;14.30;99.90;;;;;;4974939;28;20433;-85
2023/05/12 10:59:16;;;;;;;11.77;7.47;;;14.30;99.90;;;;;;4974064;28;20935;-85
2023/05/12 11:02:01;;;;;;;7.03;6.43;;;14.30;99.90;;;;;;4988693;28;20815;-87
2023/05/12 11:04:51;;;;;;;6.87;6.27;;;14.20;99.90;;;;;;4971744;28;20576;-86
2023/05/12 11:07:25;;;;;;;7.10;5.87;;;14.10;99.90;;;;;;4989030;28;20473;-86
2023/05/12 11:09:53;;;;;;;6.60;6.00;;;14.10;99.90;;;;;;4989650;28;20523;-86
2023/05/12 11:12:19;;;;;;;6.03;5.13;;;14.10;99.90;;;;;;5007305;28;20953;-82
2023/05/12 11:14:46;;;;;;;6.37;5.80;;;14.10;99.90;;;;;;5005838;28;20930;-85
2023/05/12 11:17:12;;;;;;;5.60;5.07;;;14.10;99.90;;;;;;4973006;28;20474;-86
2023/05/12 11:19:39;;;;;;;5.40;4.90;;;14.00;99.90;;;;;;4973081;28;20453;-85
2023/05/12 11:22:10;;;;;;;6.90;6.20;;;14.00;99.90;;;;;;4977296;28;20469;-84
2023/05/12 11:24:38;;;;;;;6.40;5.80;;;14.10;99.90;;;;;;4985082;28;20448;-87
2023/05/12 11:27:05;;;;;;;6.30;5.70;;;14.10;99.90;;;;;;4987678;28;20885;-82
2023/05/12 11:29:31;;;;;;;6.23;5.60;;;14.00;99.90;;;;;;4982748;28;20449;-82
2023/05/12 11:31:59;;;;;;;6.23;5.57;;;14.10;99.90;;;;;;4973548;28;20446;-82
2023/05/12 11:34:28;;;;;;;8.67;5.93;;;14.10;99.90;;;;;;4971188;28;20437;-82
2023/05/12 11:36:55;;;;;;;6.43;5.70;;;14.10;99.90;;;;;;4978670;28;20457;-81
2023/05/12 11:39:22;;;;;;;7.70;6.43;;;14.00;99.90;;;;;;4987483;28;20418;-81
2023/05/12 11:41:49;;;;;;;8.57;7.77;;;14.00;99.90;;;;;;4982634;28;20453;-82
2023/05/12 11:44:24;;;;;;;8.77;7.97;;;14.00;99.90;;;;;;4984168;28;20511;-84
2023/05/12 11:46:58;;;;;;;7.07;6.30;;;14.00;99.90;;;;;;4979534;28;20520;-86
2023/05/12 11:49:25;;;;;;;7.80;7.10;;;14.10;99.90;;;;;;4976332;28;20945;-81
2023/05/12 11:51:53;;;;;;;6.87;6.07;;;14.10;99.90;;;;;;4986929;28;20934;-87
2023/05/12 11:54:19;;;;;;;9.10;7.50;;;14.10;99.90;;;;;;4977131;28;20792;-81
2023/05/12 11:56:54;;;;;;;7.87;7.17;;;14.10;99.90;;;;;;4994013;28;20457;-86
2023/05/12 11:59:30;;;;;;;9.13;7.77;;;14.10;99.90;;;;;;4994128;28;20521;-85
2023/05/12 12:01:57;;;;;;;9.00;7.27;;;14.00;99.90;;;;;;4980912;28;20457;-82
2023/05/12 12:04:39;;;;;;;8.97;8.13;;;14.00;99.90;;;;;;4975910;28;20478;-82
2023/05/12 12:07:05;;;;;;;11.30;9.10;;;14.10;99.90;;;;;;4993269;28;21002;-82
2023/05/12 12:09:35;;;;;;;8.53;7.57;;;14.10;99.90;;;;;;4993335;28;20418;-87
2023/05/12 12:12:02;;;;;;;12.20;8.20;;;14.10;99.90;;;;;;4976815;28;20418;-82
2023/05/12 12:14:29;;;;;;;9.50;8.60;;;14.10;99.90;;;;;;4978443;28;20426;-85
2023/05/12 12:16:54;;;;;;;9.47;8.57;;;14.10;99.90;;;;;;4976781;28;20532;-85
2023/05/12 12:19:20;;;;;;;11.33;9.10;;;14.10;99.90;;;;;;4976891;28;20529;-82
2023/05/12 12:21:45;;;;;;;8.27;7.13;;;13.90;99.90;;;;;;4977856;28;20654;-86
2023/05/12 12:24:11;;;;;;;9.33;8.13;;;13.80;99.90;;;;;;4976754;28;20656;-82
2023/05/12 12:26:37;;;;;;;8.80;7.90;;;13.80;99.90;;;;;;4976756;28;20212;-81
2023/05/12 12:29:03;;;;;;;8.87;8.07;;;13.60;99.90;;;;;;4975307;28;20188;-81
2023/05/12 12:31:29;;;;;;;11.00;8.70;;;13.60;99.90;;;;;;4977853;28;20438;-86
2023/05/12 12:33:55;;;;;;;8.50;7.60;;;13.50;99.90;;;;;;4977744;28;20573;-87
2023/05/12 12:36:20;;;;;;;11.03;8.80;;;13.40;99.90;;;;;;4976665;28;20438;-81
2023/05/12 12:38:46;;;;;;;10.07;9.03;;;13.40;99.90;;;;;;4979834;28;20180;-86
2023/05/12 12:41:12;;;;;;;9.53;8.50;;;13.30;99.90;;;;;;4983342;28;20620;-85
2023/05/12 12:43:38;;;;;;;10.53;8.40;;;13.20;99.90;;;;;;4980392;28;20529;-84